sensor_id;sensor_type;location;lat;lon;timestamp;P1;durP1;ratioP1;P2;durP2;ratioP2
8337;SDS011;4206;48.634;9.516;2022-07-29T00:00:43;11.17;;;6.47;;
8337;SDS011;4206;48.634;9.516;2022-07-29T00:03:10;7.07;;;5.90;;
8337;SDS011;4206;48.634;9.516;2022-07-29T00:05:39;7.03;;;6.20;;
8337;SDS011;4206;48.634;9.516;2022-07-29T00:08:06;11.27;;;5.53;;
8337;SDS011;4206;48.634;9.516;2022-07-29T00:10:33;7.90;;;7.07;;
8337;SDS011;4206;48.634;9.516;2022-07-29T00:12:58;8.47;;;7.20;;
8337;SDS011;4206;48.634;9.516;2022-07-29T00:15:24;10.23;;;7.83;;
8337;SDS011;4206;48.634;9.516;2022-07-29T00:17:50;11.93;;;7.50;;
8337;SDS011;4206;48.634;9.516;2022-07-29T00:20:16;9.80;;;7.37;;
8337;SDS011;4206;48.634;9.516;2022-07-29T00:22:41;8.90;;;8.10;;
8337;SDS011;4206;48.634;9.516;2022-07-29T00:25:07;7.73;;;6.23;;
8337;SDS011;4206;48.634;9.516;2022-07-29T00:27:34;9.23;;;6.50;;
8337;SDS011;4206;48.634;9.516;2022-07-29T00:30:00;8.17;;;6.40;;
8337;SDS011;4206;48.634;9.516;2022-07-29T00:32:26;7.40;;;6.67;;
8337;SDS011;4206;48.634;9.516;2022-07-29T00:34:51;9.93;;;7.63;;
8337;SDS011;4206;48.634;9.516;2022-07-29T00:37:32;7.57;;;6.83;;
8337;SDS011;4206;48.634;9.516;2022-07-29T00:39:58;8.53;;;7.03;;
8337;SDS011;4206;48.634;9.516;2022-07-29T00:42:23;5.40;;;4.90;;
8337;SDS011;4206;48.634;9.516;2022-07-29T00:44:49;6.47;;;4.57;;
8337;SDS011;4206;48.634;9.516;2022-07-29T00:47:15;4.80;;;4.40;;
8337;SDS011;4206;48.634;9.516;2022-07-29T00:49:41;4.77;;;4.37;;
8337;SDS011;4206;48.634;9.516;2022-07-29T00:52:08;5.00;;;4.50;;
8337;SDS011;4206;48.634;9.516;2022-07-29T00:54:35;6.83;;;4.40;;
8337;SDS011;4206;48.634;9.516;2022-07-29T00:57:02;5.13;;;4.57;;
8337;SDS011;4206;48.634;9.516;2022-07-29T00:59:28;5.60;;;5.00;;
8337;SDS011;4206;48.634;9.516;2022-07-29T01:01:54;4.57;;;4.27;;
8337;SDS011;4206;48.634;9.516;2022-07-29T01:04:20;5.80;;;5.20;;
8337;SDS011;4206;48.634;9.516;2022-07-29T01:06:47;5.40;;;4.90;;
8337;SDS011;4206;48.634;9.516;2022-07-29T01:09:14;7.10;;;5.20;;
8337;SDS011;4206;48.634;9.516;2022-07-29T01:11:41;6.77;;;4.87;;
8337;SDS011;4206;48.634;9.516;2022-07-29T01:14:08;7.93;;;4.77;;
8337;SDS011;4206;48.634;9.516;2022-07-29T01:16:39;7.53;;;5.27;;
8337;SDS011;4206;48.634;9.516;2022-07-29T01:19:17;9.43;;;5.00;;
8337;SDS011;4206;48.634;9.516;2022-07-29T01:30:21;4.07;;;3.70;;
8337;SDS011;4206;48.634;9.516;2022-07-29T01:32:50;6.37;;;4.47;;
8337;SDS011;4206;48.634;9.516;2022-07-29T01:35:25;4.10;;;3.80;;
8337;SDS011;4206;48.634;9.516;2022-07-29T01:40:30;4.60;;;3.27;;
8337;SDS011;4206;48.634;9.516;2022-07-29T01:43:16;3.70;;;3.30;;
8337;SDS011;4206;48.634;9.516;2022-07-29T01:45:47;5.70;;;3.80;;
8337;SDS011;4206;48.634;9.516;2022-07-29T01:48:19;4.23;;;3.27;;
8337;SDS011;4206;48.634;9.516;2022-07-29T01:50:50;6.20;;;3.77;;
8337;SDS011;4206;48.634;9.516;2022-07-29T01:53:25;4.90;;;3.67;;
8337;SDS011;4206;48.634;9.516;2022-07-29T01:55:56;4.70;;;4.20;;
8337;SDS011;4206;48.634;9.516;2022-07-29T01:58:24;5.30;;;3.80;;
8337;SDS011;4206;48.634;9.516;2022-07-29T02:00:53;5.70;;;4.90;;
8337;SDS011;4206;48.634;9.516;2022-07-29T02:03:22;8.77;;;5.73;;
8337;SDS011;4206;48.634;9.516;2022-07-29T02:05:51;7.30;;;5.70;;
8337;SDS011;4206;48.634;9.516;2022-07-29T02:08:17;6.73;;;6.03;;
8337;SDS011;4206;48.634;9.516;2022-07-29T02:10:45;9.10;;;6.27;;
8337;SDS011;4206;48.634;9.516;2022-07-29T02:13:12;9.17;;;6.07;;
8337;SDS011;4206;48.634;9.516;2022-07-29T02:15:39;9.00;;;5.40;;
8337;SDS011;4206;48.634;9.516;2022-07-29T02:18:09;7.80;;;6.63;;
8337;SDS011;4206;48.634;9.516;2022-07-29T02:20:39;6.33;;;5.70;;
8337;SDS011;4206;48.634;9.516;2022-07-29T02:23:10;6.53;;;4.97;;
8337;SDS011;4206;48.634;9.516;2022-07-29T02:25:37;5.83;;;5.33;;
8337;SDS011;4206;48.634;9.516;2022-07-29T02:28:06;8.60;;;6.07;;
8337;SDS011;4206;48.634;9.516;2022-07-29T02:30:32;6.93;;;6.23;;
8337;SDS011;4206;48.634;9.516;2022-07-29T02:33:03;8.30;;;6.00;;
8337;SDS011;4206;48.634;9.516;2022-07-29T02:35:30;7.10;;;5.77;;
8337;SDS011;4206;48.634;9.516;2022-07-29T02:37:56;6.07;;;5.47;;
8337;SDS011;4206;48.634;9.516;2022-07-29T02:40:38;5.47;;;4.97;;
8337;SDS011;4206;48.634;9.516;2022-07-29T02:43:07;6.93;;;5.50;;
8337;SDS011;4206;48.634;9.516;2022-07-29T02:45:34;6.30;;;5.27;;
8337;SDS011;4206;48.634;9.516;2022-07-29T02:48:01;5.33;;;4.57;;
8337;SDS011;4206;48.634;9.516;2022-07-29T02:50:37;6.80;;;5.70;;
8337;SDS011;4206;48.634;9.516;2022-07-29T02:53:08;8.33;;;5.20;;
8337;SDS011;4206;48.634;9.516;2022-07-29T03:00:47;6.97;;;5.40;;
8337;SDS011;4206;48.634;9.516;2022-07-29T03:03:16;5.73;;;5.23;;
8337;SDS011;4206;48.634;9.516;2022-07-29T03:05:43;6.60;;;6.00;;
8337;SDS011;4206;48.634;9.516;2022-07-29T03:08:10;6.87;;;5.93;;
8337;SDS011;4206;48.634;9.516;2022-07-29T03:10:37;5.73;;;5.23;;
8337;SDS011;4206;48.634;9.516;2022-07-29T03:13:07;7.67;;;5.50;;
8337;SDS011;4206;48.634;9.516;2022-07-29T03:15:34;6.83;;;5.20;;
8337;SDS011;4206;48.634;9.516;2022-07-29T03:18:00;7.63;;;6.07;;
8337;SDS011;4206;48.634;9.516;2022-07-29T03:20:27;5.60;;;5.10;;
8337;SDS011;4206;48.634;9.516;2022-07-29T03:22:52;7.43;;;5.57;;
8337;SDS011;4206;48.634;9.516;2022-07-29T03:25:19;7.87;;;6.53;;
8337;SDS011;4206;48.634;9.516;2022-07-29T03:27:45;10.53;;;6.20;;
8337;SDS011;4206;48.634;9.516;2022-07-29T03:30:12;6.63;;;5.87;;
8337;SDS011;4206;48.634;9.516;2022-07-29T03:32:38;7.20;;;6.50;;
8337;SDS011;4206;48.634;9.516;2022-07-29T03:35:05;7.80;;;7.00;;
8337;SDS011;4206;48.634;9.516;2022-07-29T03:37:31;6.60;;;6.00;;
8337;SDS011;4206;48.634;9.516;2022-07-29T03:39:58;6.87;;;6.17;;
8337;SDS011;4206;48.634;9.516;2022-07-29T03:42:28;7.13;;;6.43;;
8337;SDS011;4206;48.634;9.516;2022-07-29T03:44:58;7.20;;;6.50;;
8337;SDS011;4206;48.634;9.516;2022-07-29T03:47:27;8.57;;;6.53;;
8337;SDS011;4206;48.634;9.516;2022-07-29T03:49:56;8.90;;;7.27;;
8337;SDS011;4206;48.634;9.516;2022-07-29T03:52:29;7.90;;;7.10;;
8337;SDS011;4206;48.634;9.516;2022-07-29T03:54:55;7.77;;;6.43;;
8337;SDS011;4206;48.634;9.516;2022-07-29T03:57:23;6.27;;;5.63;;
8337;SDS011;4206;48.634;9.516;2022-07-29T03:59:52;9.80;;;6.80;;
8337;SDS011;4206;48.634;9.516;2022-07-29T04:02:18;9.97;;;5.93;;
8337;SDS011;4206;48.634;9.516;2022-07-29T04:04:44;10.77;;;6.50;;
8337;SDS011;4206;48.634;9.516;2022-07-29T04:07:12;7.70;;;6.00;;
8337;SDS011;4206;48.634;9.516;2022-07-29T04:09:39;7.10;;;6.27;;
8337;SDS011;4206;48.634;9.516;2022-07-29T04:12:05;7.77;;;6.07;;
8337;SDS011;4206;48.634;9.516;2022-07-29T04:14:31;8.43;;;7.00;;
8337;SDS011;4206;48.634;9.516;2022-07-29T04:16:58;7.43;;;6.70;;
8337;SDS011;4206;48.634;9.516;2022-07-29T04:19:24;6.83;;;6.13;;
8337;SDS011;4206;48.634;9.516;2022-07-29T04:21:50;6.60;;;6.00;;
8337;SDS011;4206;48.634;9.516;2022-07-29T04:24:16;9.27;;;7.30;;
8337;SDS011;4206;48.634;9.516;2022-07-29T04:26:42;8.23;;;6.60;;
8337;SDS011;4206;48.634;9.516;2022-07-29T04:29:07;11.17;;;6.80;;
8337;SDS011;4206;48.634;9.516;2022-07-29T04:31:33;8.17;;;7.37;;
8337;SDS011;4206;48.634;9.516;2022-07-29T04:33:59;7.90;;;7.13;;
8337;SDS011;4206;48.634;9.516;2022-07-29T04:36:25;8.10;;;6.20;;
8337;SDS011;4206;48.634;9.516;2022-07-29T04:38:50;7.13;;;6.43;;
8337;SDS011;4206;48.634;9.516;2022-07-29T04:41:16;10.20;;;6.03;;
8337;SDS011;4206;48.634;9.516;2022-07-29T04:43:42;7.97;;;6.10;;
8337;SDS011;4206;48.634;9.516;2022-07-29T04:46:08;5.97;;;5.37;;
8337;SDS011;4206;48.634;9.516;2022-07-29T04:48:33;8.67;;;6.80;;
8337;SDS011;4206;48.634;9.516;2022-07-29T04:50:59;5.50;;;5.00;;
8337;SDS011;4206;48.634;9.516;2022-07-29T04:53:25;5.70;;;5.20;;
8337;SDS011;4206;48.634;9.516;2022-07-29T04:55:51;9.20;;;5.57;;
8337;SDS011;4206;48.634;9.516;2022-07-29T04:58:16;4.90;;;4.50;;
8337;SDS011;4206;48.634;9.516;2022-07-29T05:00:42;10.00;;;4.83;;
8337;SDS011;4206;48.634;9.516;2022-07-29T05:03:08;6.90;;;4.40;;
8337;SDS011;4206;48.634;9.516;2022-07-29T05:05:34;4.70;;;4.23;;
8337;SDS011;4206;48.634;9.516;2022-07-29T05:07:59;5.73;;;3.87;;
8337;SDS011;4206;48.634;9.516;2022-07-29T05:10:25;7.33;;;4.00;;
8337;SDS011;4206;48.634;9.516;2022-07-29T05:12:51;7.53;;;4.30;;
8337;SDS011;4206;48.634;9.516;2022-07-29T05:15:17;5.20;;;4.00;;
8337;SDS011;4206;48.634;9.516;2022-07-29T05:17:43;6.57;;;4.60;;
8337;SDS011;4206;48.634;9.516;2022-07-29T05:20:09;6.80;;;4.57;;
8337;SDS011;4206;48.634;9.516;2022-07-29T05:22:35;10.10;;;5.30;;
8337;SDS011;4206;48.634;9.516;2022-07-29T05:25:01;7.80;;;5.67;;
8337;SDS011;4206;48.634;9.516;2022-07-29T05:27:27;8.93;;;6.07;;
8337;SDS011;4206;48.634;9.516;2022-07-29T05:29:53;7.80;;;6.20;;
8337;SDS011;4206;48.634;9.516;2022-07-29T05:32:18;9.37;;;5.93;;
8337;SDS011;4206;48.634;9.516;2022-07-29T05:34:44;6.30;;;5.33;;
8337;SDS011;4206;48.634;9.516;2022-07-29T05:37:09;7.47;;;4.87;;
8337;SDS011;4206;48.634;9.516;2022-07-29T05:39:35;10.60;;;5.40;;
8337;SDS011;4206;48.634;9.516;2022-07-29T05:42:01;16.20;;;5.27;;
8337;SDS011;4206;48.634;9.516;2022-07-29T05:44:27;5.60;;;4.73;;
8337;SDS011;4206;48.634;9.516;2022-07-29T05:46:53;5.40;;;4.20;;
8337;SDS011;4206;48.634;9.516;2022-07-29T05:49:18;6.50;;;4.07;;
8337;SDS011;4206;48.634;9.516;2022-07-29T05:51:44;7.37;;;4.30;;
8337;SDS011;4206;48.634;9.516;2022-07-29T05:54:10;4.50;;;4.10;;
8337;SDS011;4206;48.634;9.516;2022-07-29T05:56:36;6.07;;;4.53;;
8337;SDS011;4206;48.634;9.516;2022-07-29T05:59:02;4.40;;;3.77;;
8337;SDS011;4206;48.634;9.516;2022-07-29T06:01:28;5.40;;;4.27;;
8337;SDS011;4206;48.634;9.516;2022-07-29T06:03:54;5.53;;;3.80;;
8337;SDS011;4206;48.634;9.516;2022-07-29T06:06:19;4.33;;;3.90;;
8337;SDS011;4206;48.634;9.516;2022-07-29T06:08:45;8.83;;;4.33;;
8337;SDS011;4206;48.634;9.516;2022-07-29T06:11:11;5.53;;;3.80;;
8337;SDS011;4206;48.634;9.516;2022-07-29T06:13:36;3.70;;;3.40;;
8337;SDS011;4206;48.634;9.516;2022-07-29T06:16:02;8.27;;;3.67;;
8337;SDS011;4206;48.634;9.516;2022-07-29T06:18:29;4.70;;;3.10;;
8337;SDS011;4206;48.634;9.516;2022-07-29T06:20:54;3.37;;;2.70;;
8337;SDS011;4206;48.634;9.516;2022-07-29T06:23:20;4.80;;;3.80;;
8337;SDS011;4206;48.634;9.516;2022-07-29T06:25:46;6.40;;;4.17;;
8337;SDS011;4206;48.634;9.516;2022-07-29T06:28:12;5.90;;;3.77;;
8337;SDS011;4206;48.634;9.516;2022-07-29T06:30:38;6.40;;;3.00;;
8337;SDS011;4206;48.634;9.516;2022-07-29T06:33:04;3.47;;;3.17;;
8337;SDS011;4206;48.634;9.516;2022-07-29T06:35:32;4.37;;;3.10;;
8337;SDS011;4206;48.634;9.516;2022-07-29T06:38:00;3.13;;;2.83;;
8337;SDS011;4206;48.634;9.516;2022-07-29T06:40:26;3.77;;;2.90;;
8337;SDS011;4206;48.634;9.516;2022-07-29T06:43:07;7.80;;;3.80;;
8337;SDS011;4206;48.634;9.516;2022-07-29T06:45:33;4.83;;;3.27;;
8337;SDS011;4206;48.634;9.516;2022-07-29T06:47:59;5.77;;;3.17;;
8337;SDS011;4206;48.634;9.516;2022-07-29T06:50:25;4.07;;;2.60;;
8337;SDS011;4206;48.634;9.516;2022-07-29T06:52:51;3.60;;;2.73;;
8337;SDS011;4206;48.634;9.516;2022-07-29T06:55:17;3.40;;;3.20;;
8337;SDS011;4206;48.634;9.516;2022-07-29T06:57:44;2.93;;;2.60;;
8337;SDS011;4206;48.634;9.516;2022-07-29T07:00:11;3.37;;;3.07;;
8337;SDS011;4206;48.634;9.516;2022-07-29T07:02:38;5.40;;;2.20;;
8337;SDS011;4206;48.634;9.516;2022-07-29T07:05:04;2.40;;;2.20;;
8337;SDS011;4206;48.634;9.516;2022-07-29T07:07:30;2.80;;;2.60;;
8337;SDS011;4206;48.634;9.516;2022-07-29T07:09:56;2.57;;;2.37;;
8337;SDS011;4206;48.634;9.516;2022-07-29T07:12:22;5.70;;;2.37;;
8337;SDS011;4206;48.634;9.516;2022-07-29T07:14:47;2.80;;;2.57;;
8337;SDS011;4206;48.634;9.516;2022-07-29T07:17:13;6.13;;;3.13;;
8337;SDS011;4206;48.634;9.516;2022-07-29T07:19:39;3.70;;;2.60;;
8337;SDS011;4206;48.634;9.516;2022-07-29T07:22:04;2.77;;;2.40;;
8337;SDS011;4206;48.634;9.516;2022-07-29T07:24:30;4.30;;;2.07;;
8337;SDS011;4206;48.634;9.516;2022-07-29T07:26:56;3.20;;;2.40;;
8337;SDS011;4206;48.634;9.516;2022-07-29T07:29:22;2.47;;;2.27;;
8337;SDS011;4206;48.634;9.516;2022-07-29T07:31:47;3.40;;;2.33;;
8337;SDS011;4206;48.634;9.516;2022-07-29T07:34:13;3.17;;;2.30;;
8337;SDS011;4206;48.634;9.516;2022-07-29T07:36:39;2.60;;;2.23;;
8337;SDS011;4206;48.634;9.516;2022-07-29T07:39:04;3.30;;;2.10;;
8337;SDS011;4206;48.634;9.516;2022-07-29T07:41:30;2.57;;;2.37;;
8337;SDS011;4206;48.634;9.516;2022-07-29T07:43:56;2.90;;;2.53;;
8337;SDS011;4206;48.634;9.516;2022-07-29T07:46:22;13.00;;;2.80;;
8337;SDS011;4206;48.634;9.516;2022-07-29T07:48:47;3.10;;;2.23;;
8337;SDS011;4206;48.634;9.516;2022-07-29T07:51:13;4.27;;;2.43;;
8337;SDS011;4206;48.634;9.516;2022-07-29T07:53:39;5.93;;;2.40;;
8337;SDS011;4206;48.634;9.516;2022-07-29T07:56:04;2.93;;;2.50;;
8337;SDS011;4206;48.634;9.516;2022-07-29T07:58:31;4.00;;;2.63;;
8337;SDS011;4206;48.634;9.516;2022-07-29T08:00:57;3.27;;;2.50;;
8337;SDS011;4206;48.634;9.516;2022-07-29T08:03:23;3.83;;;2.50;;
8337;SDS011;4206;48.634;9.516;2022-07-29T08:05:48;3.57;;;2.30;;
8337;SDS011;4206;48.634;9.516;2022-07-29T08:08:16;2.43;;;2.20;;
8337;SDS011;4206;48.634;9.516;2022-07-29T08:10:42;3.17;;;2.30;;
8337;SDS011;4206;48.634;9.516;2022-07-29T08:13:24;2.93;;;2.37;;
8337;SDS011;4206;48.634;9.516;2022-07-29T08:15:53;2.73;;;2.30;;
8337;SDS011;4206;48.634;9.516;2022-07-29T08:18:27;2.97;;;2.40;;
8337;SDS011;4206;48.634;9.516;2022-07-29T08:20:53;2.50;;;2.30;;
8337;SDS011;4206;48.634;9.516;2022-07-29T08:23:19;8.83;;;2.90;;
8337;SDS011;4206;48.634;9.516;2022-07-29T08:25:45;3.57;;;2.90;;
8337;SDS011;4206;48.634;9.516;2022-07-29T08:28:11;3.40;;;2.63;;
8337;SDS011;4206;48.634;9.516;2022-07-29T08:30:37;6.20;;;2.87;;
8337;SDS011;4206;48.634;9.516;2022-07-29T08:33:03;4.33;;;3.03;;
8337;SDS011;4206;48.634;9.516;2022-07-29T08:35:28;3.70;;;3.33;;
8337;SDS011;4206;48.634;9.516;2022-07-29T08:37:54;4.10;;;2.70;;
8337;SDS011;4206;48.634;9.516;2022-07-29T08:40:21;3.20;;;2.80;;
8337;SDS011;4206;48.634;9.516;2022-07-29T08:42:48;3.43;;;2.60;;
8337;SDS011;4206;48.634;9.516;2022-07-29T08:45:15;2.97;;;2.50;;
8337;SDS011;4206;48.634;9.516;2022-07-29T08:47:40;4.03;;;2.83;;
8337;SDS011;4206;48.634;9.516;2022-07-29T08:50:09;2.80;;;2.50;;
8337;SDS011;4206;48.634;9.516;2022-07-29T08:52:36;2.42;;;2.20;;
8337;SDS011;4206;48.634;9.516;2022-07-29T08:55:04;2.92;;;2.72;;
8337;SDS011;4206;48.634;9.516;2022-07-29T08:57:31;3.75;;;3.00;;
8337;SDS011;4206;48.634;9.516;2022-07-29T08:59:59;4.20;;;2.80;;
8337;SDS011;4206;48.634;9.516;2022-07-29T09:02:25;5.40;;;3.03;;
8337;SDS011;4206;48.634;9.516;2022-07-29T09:04:56;4.68;;;3.55;;
8337;SDS011;4206;48.634;9.516;2022-07-29T09:07:25;5.68;;;3.17;;
8337;SDS011;4206;48.634;9.516;2022-07-29T09:09:50;5.57;;;3.47;;
8337;SDS011;4206;48.634;9.516;2022-07-29T09:12:16;5.32;;;2.60;;
8337;SDS011;4206;48.634;9.516;2022-07-29T09:14:43;6.05;;;2.80;;
8337;SDS011;4206;48.634;9.516;2022-07-29T09:17:08;4.30;;;2.80;;
8337;SDS011;4206;48.634;9.516;2022-07-29T09:19:35;5.78;;;2.80;;
8337;SDS011;4206;48.634;9.516;2022-07-29T09:22:03;3.42;;;2.50;;
8337;SDS011;4206;48.634;9.516;2022-07-29T09:27:00;11.57;;;3.28;;
8337;SDS011;4206;48.634;9.516;2022-07-29T09:29:27;2.95;;;2.65;;
8337;SDS011;4206;48.634;9.516;2022-07-29T09:31:53;3.50;;;2.58;;
8337;SDS011;4206;48.634;9.516;2022-07-29T09:34:22;5.45;;;2.90;;
8337;SDS011;4206;48.634;9.516;2022-07-29T09:36:51;5.93;;;2.35;;
8337;SDS011;4206;48.634;9.516;2022-07-29T09:42:02;3.40;;;3.10;;
8337;SDS011;4206;48.634;9.516;2022-07-29T09:47:11;4.63;;;2.67;;
8337;SDS011;4206;48.634;9.516;2022-07-29T09:52:20;6.35;;;2.80;;
8337;SDS011;4206;48.634;9.516;2022-07-29T09:54:46;5.43;;;2.83;;
8337;SDS011;4206;48.634;9.516;2022-07-29T10:02:27;3.47;;;2.53;;
8337;SDS011;4206;48.634;9.516;2022-07-29T10:04:54;3.03;;;2.72;;
8337;SDS011;4206;48.634;9.516;2022-07-29T10:07:20;2.88;;;2.60;;
8337;SDS011;4206;48.634;9.516;2022-07-29T10:09:54;6.30;;;3.13;;
8337;SDS011;4206;48.634;9.516;2022-07-29T10:12:21;4.07;;;3.30;;
8337;SDS011;4206;48.634;9.516;2022-07-29T10:14:48;5.20;;;3.20;;
8337;SDS011;4206;48.634;9.516;2022-07-29T10:17:15;4.45;;;2.60;;
8337;SDS011;4206;48.634;9.516;2022-07-29T10:19:42;4.53;;;2.80;;
8337;SDS011;4206;48.634;9.516;2022-07-29T10:22:08;7.65;;;3.03;;
8337;SDS011;4206;48.634;9.516;2022-07-29T10:24:35;6.70;;;3.25;;
8337;SDS011;4206;48.634;9.516;2022-07-29T10:27:04;5.18;;;2.58;;
8337;SDS011;4206;48.634;9.516;2022-07-29T10:29:31;3.13;;;2.83;;
8337;SDS011;4206;48.634;9.516;2022-07-29T10:32:02;6.47;;;2.63;;
8337;SDS011;4206;48.634;9.516;2022-07-29T10:37:20;6.25;;;2.55;;
8337;SDS011;4206;48.634;9.516;2022-07-29T10:40:09;3.10;;;2.88;;
8337;SDS011;4206;48.634;9.516;2022-07-29T10:42:58;3.05;;;2.72;;
8337;SDS011;4206;48.634;9.516;2022-07-29T10:45:39;8.13;;;3.47;;
8337;SDS011;4206;48.634;9.516;2022-07-29T10:48:05;5.63;;;2.88;;
8337;SDS011;4206;48.634;9.516;2022-07-29T11:01:45;4.53;;;3.13;;
8337;SDS011;4206;48.634;9.516;2022-07-29T11:04:12;5.88;;;3.30;;
8337;SDS011;4206;48.634;9.516;2022-07-29T11:09:27;4.45;;;3.17;;
8337;SDS011;4206;48.634;9.516;2022-07-29T11:11:54;5.00;;;3.13;;
8337;SDS011;4206;48.634;9.516;2022-07-29T11:17:17;4.03;;;3.05;;
8337;SDS011;4206;48.634;9.516;2022-07-29T11:19:43;3.50;;;2.88;;
8337;SDS011;4206;48.634;9.516;2022-07-29T11:22:09;6.70;;;3.38;;
8337;SDS011;4206;48.634;9.516;2022-07-29T11:24:37;6.72;;;4.10;;
8337;SDS011;4206;48.634;9.516;2022-07-29T11:27:07;6.03;;;3.50;;
8337;SDS011;4206;48.634;9.516;2022-07-29T11:29:33;4.53;;;2.90;;
8337;SDS011;4206;48.634;9.516;2022-07-29T11:32:11;5.43;;;3.40;;
8337;SDS011;4206;48.634;9.516;2022-07-29T11:34:40;3.65;;;3.35;;
8337;SDS011;4206;48.634;9.516;2022-07-29T11:39:34;4.43;;;3.40;;
8337;SDS011;4206;48.634;9.516;2022-07-29T11:44:53;6.70;;;3.70;;
8337;SDS011;4206;48.634;9.516;2022-07-29T11:47:23;4.45;;;3.08;;
8337;SDS011;4206;48.634;9.516;2022-07-29T11:49:50;5.80;;;3.50;;
8337;SDS011;4206;48.634;9.516;2022-07-29T11:52:17;7.63;;;3.73;;
8337;SDS011;4206;48.634;9.516;2022-07-29T11:54:44;5.23;;;2.90;;
8337;SDS011;4206;48.634;9.516;2022-07-29T11:57:12;4.30;;;2.93;;
8337;SDS011;4206;48.634;9.516;2022-07-29T11:59:39;2.37;;;1.90;;
8337;SDS011;4206;48.634;9.516;2022-07-29T12:02:07;3.47;;;1.63;;
8337;SDS011;4206;48.634;9.516;2022-07-29T12:04:34;1.97;;;1.70;;
8337;SDS011;4206;48.634;9.516;2022-07-29T12:07:29;3.70;;;2.00;;
8337;SDS011;4206;48.634;9.516;2022-07-29T12:09:56;1.67;;;1.57;;
8337;SDS011;4206;48.634;9.516;2022-07-29T12:12:22;5.30;;;1.90;;
8337;SDS011;4206;48.634;9.516;2022-07-29T12:14:48;3.97;;;2.10;;
8337;SDS011;4206;48.634;9.516;2022-07-29T12:19:56;2.67;;;2.17;;
8337;SDS011;4206;48.634;9.516;2022-07-29T12:22:25;4.33;;;1.80;;
8337;SDS011;4206;48.634;9.516;2022-07-29T12:24:52;3.40;;;2.40;;
8337;SDS011;4206;48.634;9.516;2022-07-29T12:27:19;6.30;;;2.73;;
8337;SDS011;4206;48.634;9.516;2022-07-29T12:29:45;7.40;;;2.97;;
8337;SDS011;4206;48.634;9.516;2022-07-29T12:32:31;3.63;;;2.50;;
8337;SDS011;4206;48.634;9.516;2022-07-29T12:35:04;2.03;;;1.93;;
8337;SDS011;4206;48.634;9.516;2022-07-29T12:37:33;3.60;;;1.80;;
8337;SDS011;4206;48.634;9.516;2022-07-29T12:40:02;2.27;;;1.97;;
8337;SDS011;4206;48.634;9.516;2022-07-29T12:42:29;1.97;;;1.83;;
8337;SDS011;4206;48.634;9.516;2022-07-29T12:44:54;2.33;;;1.43;;
8337;SDS011;4206;48.634;9.516;2022-07-29T12:47:20;1.97;;;1.77;;
8337;SDS011;4206;48.634;9.516;2022-07-29T12:49:46;2.27;;;1.77;;
8337;SDS011;4206;48.634;9.516;2022-07-29T12:54:56;3.40;;;1.63;;
8337;SDS011;4206;48.634;9.516;2022-07-29T12:57:22;1.97;;;1.77;;
8337;SDS011;4206;48.634;9.516;2022-07-29T13:02:33;2.63;;;2.17;;
8337;SDS011;4206;48.634;9.516;2022-07-29T13:04:59;4.43;;;2.53;;
8337;SDS011;4206;48.634;9.516;2022-07-29T13:07:27;3.03;;;2.37;;
8337;SDS011;4206;48.634;9.516;2022-07-29T13:10:09;4.57;;;2.47;;
8337;SDS011;4206;48.634;9.516;2022-07-29T13:12:38;3.70;;;2.30;;
8337;SDS011;4206;48.634;9.516;2022-07-29T13:15:12;4.30;;;2.27;;
8337;SDS011;4206;48.634;9.516;2022-07-29T13:17:40;2.07;;;1.73;;
8337;SDS011;4206;48.634;9.516;2022-07-29T13:20:08;3.67;;;2.10;;
8337;SDS011;4206;48.634;9.516;2022-07-29T13:22:37;3.53;;;2.90;;
8337;SDS011;4206;48.634;9.516;2022-07-29T13:25:04;5.30;;;3.70;;
8337;SDS011;4206;48.634;9.516;2022-07-29T13:27:32;3.23;;;2.87;;
8337;SDS011;4206;48.634;9.516;2022-07-29T13:30:00;3.47;;;2.40;;
8337;SDS011;4206;48.634;9.516;2022-07-29T13:32:27;2.80;;;2.13;;
8337;SDS011;4206;48.634;9.516;2022-07-29T13:34:55;2.27;;;2.03;;
8337;SDS011;4206;48.634;9.516;2022-07-29T13:37:21;2.93;;;2.30;;
8337;SDS011;4206;48.634;9.516;2022-07-29T13:39:46;3.43;;;2.60;;
8337;SDS011;4206;48.634;9.516;2022-07-29T13:42:13;3.90;;;2.90;;
8337;SDS011;4206;48.634;9.516;2022-07-29T13:44:39;3.20;;;2.30;;
8337;SDS011;4206;48.634;9.516;2022-07-29T13:47:07;2.47;;;2.27;;
8337;SDS011;4206;48.634;9.516;2022-07-29T13:49:33;3.00;;;2.30;;
8337;SDS011;4206;48.634;9.516;2022-07-29T13:51:59;2.23;;;1.70;;
8337;SDS011;4206;48.634;9.516;2022-07-29T13:54:24;3.00;;;1.97;;
8337;SDS011;4206;48.634;9.516;2022-07-29T13:56:50;3.60;;;2.20;;
8337;SDS011;4206;48.634;9.516;2022-07-29T13:59:16;2.30;;;2.10;;
8337;SDS011;4206;48.634;9.516;2022-07-29T14:01:42;2.10;;;2.00;;
8337;SDS011;4206;48.634;9.516;2022-07-29T14:04:09;3.60;;;2.00;;
8337;SDS011;4206;48.634;9.516;2022-07-29T14:06:35;3.40;;;2.17;;
8337;SDS011;4206;48.634;9.516;2022-07-29T14:09:03;3.63;;;2.30;;
8337;SDS011;4206;48.634;9.516;2022-07-29T14:11:31;2.80;;;2.40;;
8337;SDS011;4206;48.634;9.516;2022-07-29T14:13:57;3.13;;;2.20;;
8337;SDS011;4206;48.634;9.516;2022-07-29T14:16:23;2.23;;;2.03;;
8337;SDS011;4206;48.634;9.516;2022-07-29T14:18:48;2.90;;;2.43;;
8337;SDS011;4206;48.634;9.516;2022-07-29T14:21:14;4.13;;;2.13;;
8337;SDS011;4206;48.634;9.516;2022-07-29T14:23:40;2.40;;;2.17;;
8337;SDS011;4206;48.634;9.516;2022-07-29T14:26:06;3.50;;;2.50;;
8337;SDS011;4206;48.634;9.516;2022-07-29T14:28:31;2.40;;;2.20;;
8337;SDS011;4206;48.634;9.516;2022-07-29T14:30:57;3.43;;;2.27;;
8337;SDS011;4206;48.634;9.516;2022-07-29T14:33:23;3.00;;;2.70;;
8337;SDS011;4206;48.634;9.516;2022-07-29T14:35:48;2.20;;;2.07;;
8337;SDS011;4206;48.634;9.516;2022-07-29T14:38:14;5.30;;;3.73;;
8337;SDS011;4206;48.634;9.516;2022-07-29T14:40:40;3.50;;;2.83;;
8337;SDS011;4206;48.634;9.516;2022-07-29T14:43:05;4.87;;;2.80;;
8337;SDS011;4206;48.634;9.516;2022-07-29T14:45:31;3.80;;;2.50;;
8337;SDS011;4206;48.634;9.516;2022-07-29T14:47:57;4.17;;;2.80;;
8337;SDS011;4206;48.634;9.516;2022-07-29T14:50:23;7.60;;;2.87;;
8337;SDS011;4206;48.634;9.516;2022-07-29T14:52:51;3.30;;;2.70;;
8337;SDS011;4206;48.634;9.516;2022-07-29T14:55:17;2.70;;;2.50;;
8337;SDS011;4206;48.634;9.516;2022-07-29T14:57:42;2.90;;;2.57;;
8337;SDS011;4206;48.634;9.516;2022-07-29T15:00:08;4.07;;;2.90;;
8337;SDS011;4206;48.634;9.516;2022-07-29T15:02:35;3.70;;;2.70;;
8337;SDS011;4206;48.634;9.516;2022-07-29T15:05:01;6.60;;;2.70;;
8337;SDS011;4206;48.634;9.516;2022-07-29T15:07:27;3.40;;;2.30;;
8337;SDS011;4206;48.634;9.516;2022-07-29T15:09:53;2.87;;;2.57;;
8337;SDS011;4206;48.634;9.516;2022-07-29T15:12:18;3.77;;;3.13;;
8337;SDS011;4206;48.634;9.516;2022-07-29T15:14:44;3.60;;;2.73;;
8337;SDS011;4206;48.634;9.516;2022-07-29T15:17:10;2.67;;;2.43;;
8337;SDS011;4206;48.634;9.516;2022-07-29T15:19:35;4.97;;;2.80;;
8337;SDS011;4206;48.634;9.516;2022-07-29T15:22:01;3.17;;;2.80;;
8337;SDS011;4206;48.634;9.516;2022-07-29T15:24:29;6.03;;;2.80;;
8337;SDS011;4206;48.634;9.516;2022-07-29T15:26:55;3.70;;;2.73;;
8337;SDS011;4206;48.634;9.516;2022-07-29T15:29:21;5.80;;;3.07;;
8337;SDS011;4206;48.634;9.516;2022-07-29T15:31:47;3.63;;;3.00;;
8337;SDS011;4206;48.634;9.516;2022-07-29T15:34:13;3.17;;;2.43;;
8337;SDS011;4206;48.634;9.516;2022-07-29T15:36:38;4.20;;;2.93;;
8337;SDS011;4206;48.634;9.516;2022-07-29T15:39:04;3.40;;;3.10;;
8337;SDS011;4206;48.634;9.516;2022-07-29T15:41:30;4.03;;;2.83;;
8337;SDS011;4206;48.634;9.516;2022-07-29T15:43:56;3.27;;;2.93;;
8337;SDS011;4206;48.634;9.516;2022-07-29T15:46:21;3.20;;;3.00;;
8337;SDS011;4206;48.634;9.516;2022-07-29T15:49:03;6.77;;;3.27;;
8337;SDS011;4206;48.634;9.516;2022-07-29T15:51:30;3.77;;;3.00;;
8337;SDS011;4206;48.634;9.516;2022-07-29T15:53:56;3.30;;;3.00;;
8337;SDS011;4206;48.634;9.516;2022-07-29T15:56:22;4.30;;;2.63;;
8337;SDS011;4206;48.634;9.516;2022-07-29T15:58:48;10.57;;;4.17;;
8337;SDS011;4206;48.634;9.516;2022-07-29T16:01:14;5.90;;;3.60;;
8337;SDS011;4206;48.634;9.516;2022-07-29T16:03:40;5.07;;;3.70;;
8337;SDS011;4206;48.634;9.516;2022-07-29T16:06:05;8.70;;;3.47;;
8337;SDS011;4206;48.634;9.516;2022-07-29T16:08:31;7.60;;;3.33;;
8337;SDS011;4206;48.634;9.516;2022-07-29T16:10:57;5.33;;;3.67;;
8337;SDS011;4206;48.634;9.516;2022-07-29T16:13:22;4.50;;;3.33;;
8337;SDS011;4206;48.634;9.516;2022-07-29T16:15:48;2.80;;;2.60;;
8337;SDS011;4206;48.634;9.516;2022-07-29T16:18:14;3.80;;;3.17;;
8337;SDS011;4206;48.634;9.516;2022-07-29T16:20:40;4.77;;;3.20;;